Time;durP1;ratioP1;P1;durP2;ratioP2;P2;SDS_P1;SDS_P2;PMS_P1;PMS_P2;Temp;Humidity;BMP_temperature;BMP_pressure;BME280_temperature;BME280_humidity;BME280_pressure;Samples;Min_cycle;Max_cycle;Signal;HPM_P1;HPM_P2
2023/06/13 00:00:09;;;;;;;8.23;5.32;;;19.50;53.50;;;;;;5068422;28;20454;-62
2023/06/13 00:02:38;;;;;;;7.95;5.22;;;19.50;53.40;;;;;;5068777;28;20063;-68
2023/06/13 00:05:06;;;;;;;9.27;5.47;;;19.40;53.80;;;;;;5070143;28;20052;-68
2023/06/13 00:07:37;;;;;;;7.00;4.88;;;19.30;54.00;;;;;;5068332;28;20052;-63
2023/06/13 00:10:05;;;;;;;8.13;5.07;;;19.20;54.30;;;;;;5071008;28;20081;-62
2023/06/13 00:12:32;;;;;;;7.03;4.63;;;19.20;54.30;;;;;;5070398;28;20064;-64
2023/06/13 00:15:01;;;;;;;6.78;4.95;;;19.10;54.40;;;;;;5077359;28;20106;-63
2023/06/13 00:17:29;;;;;;;8.73;5.05;;;19.00;54.70;;;;;;5077535;28;20127;-76
2023/06/13 00:19:59;;;;;;;7.28;4.85;;;19.00;54.60;;;;;;5069940;28;20495;-75
2023/06/13 00:22:28;;;;;;;7.13;4.82;;;19.00;54.20;;;;;;5069087;28;20430;-71
2023/06/13 00:24:55;;;;;;;10.35;4.80;;;19.00;54.00;;;;;;5066996;28;20792;-72
2023/06/13 00:27:22;;;;;;;8.40;4.00;;;19.00;53.80;;;;;;5069385;28;20088;-69
2023/06/13 00:29:49;;;;;;;6.65;4.82;;;19.00;53.70;;;;;;5082056;28;20139;-69
2023/06/13 00:32:17;;;;;;;6.95;4.80;;;19.10;53.50;;;;;;5066936;28;20052;-71
2023/06/13 00:34:46;;;;;;;9.70;5.67;;;19.00;53.50;;;;;;5067186;28;20612;-72
2023/06/13 00:37:16;;;;;;;8.50;5.30;;;19.00;53.60;;;;;;5070306;28;20044;-78
2023/06/13 00:39:43;;;;;;;7.50;4.75;;;19.10;52.50;;;;;;5082174;28;20041;-78
2023/06/13 00:42:10;;;;;;;6.75;4.28;;;19.10;52.40;;;;;;5067149;28;20036;-76
2023/06/13 00:44:38;;;;;;;8.35;4.90;;;19.00;51.90;;;;;;5066038;28;20043;-78
2023/06/13 00:47:06;;;;;;;6.25;3.97;;;19.10;52.10;;;;;;5069235;28;20048;-70
2023/06/13 00:49:33;;;;;;;8.02;4.60;;;19.00;52.60;;;;;;5059978;28;20416;-71
2023/06/13 00:52:04;;;;;;;;;;;19.00;52.60;;;;;;5068775;28;20131;-68
2023/06/13 00:54:34;;;;;;;7.15;4.60;;;18.90;52.60;;;;;;5068245;28;19921;-68
2023/06/13 00:57:06;;;;;;;7.18;4.45;;;18.80;52.80;;;;;;5064183;28;20068;-69
2023/06/13 00:59:33;;;;;;;6.30;4.38;;;18.70;52.70;;;;;;5055286;28;20058;-68
2023/06/13 01:02:03;;;;;;;7.70;4.20;;;18.70;52.40;;;;;;5062775;28;20511;-68
2023/06/13 01:04:34;;;;;;;5.65;4.32;;;18.70;52.00;;;;;;5065741;28;20060;-69
2023/06/13 01:07:05;;;;;;;5.82;4.10;;;18.80;51.10;;;;;;5059414;28;20113;-62
2023/06/13 01:09:33;;;;;;;10.23;4.55;;;18.90;50.90;;;;;;5076447;28;20049;-62
2023/06/13 01:12:10;;;;;;;8.23;4.18;;;19.00;50.50;;;;;;5066400;28;20049;-71
2023/06/13 01:14:46;;;;;;;6.82;4.03;;;19.00;50.40;;;;;;5063083;28;20399;-72
2023/06/13 01:17:15;;;;;;;6.65;4.05;;;19.00;50.10;;;;;;5065952;28;20127;-71
2023/06/13 01:19:49;;;;;;;7.53;4.10;;;19.00;50.00;;;;;;5065952;28;20063;-71
2023/06/13 01:22:20;;;;;;;8.82;4.40;;;19.00;50.10;;;;;;5063453;28;20056;-69
2023/06/13 01:25:02;;;;;;;6.82;4.18;;;19.00;50.10;;;;;;5064696;28;20055;-68
2023/06/13 01:27:31;;;;;;;6.07;4.00;;;19.00;49.90;;;;;;5064713;28;20495;-68
2023/06/13 01:30:00;;;;;;;6.40;4.20;;;19.10;49.80;;;;;;5066141;28;20041;-68
2023/06/13 01:32:30;;;;;;;6.22;4.28;;;19.00;50.40;;;;;;5065229;28;20059;-69
2023/06/13 01:34:57;;;;;;;6.82;4.60;;;18.90;51.00;;;;;;5078821;28;20044;-70
2023/06/13 01:37:24;;;;;;;7.03;4.65;;;18.90;51.70;;;;;;5053313;28;20055;-68
2023/06/13 01:39:51;;;;;;;7.80;4.70;;;18.70;52.00;;;;;;5056168;28;20059;-68
2023/06/13 01:42:18;;;;;;;6.30;4.10;;;18.70;52.10;;;;;;5062956;28;20414;-61
2023/06/13 01:44:47;;;;;;;5.72;4.53;;;18.80;52.20;;;;;;5048983;28;20048;-62
2023/06/13 01:47:20;;;;;;;7.85;4.47;;;18.70;52.30;;;;;;5053875;28;20059;-64
2023/06/13 01:50:04;;;;;;;5.70;4.40;;;18.70;52.50;;;;;;5045104;28;20094;-64
2023/06/13 01:52:38;;;;;;;6.50;4.53;;;18.60;53.00;;;;;;5066927;28;20063;-68
2023/06/13 01:55:10;;;;;;;7.82;4.57;;;18.50;53.70;;;;;;5056394;28;20048;-68
2023/06/13 01:57:44;;;;;;;7.53;4.82;;;18.40;54.20;;;;;;5065464;28;20106;-68
2023/06/13 02:00:16;;;;;;;7.10;5.32;;;18.30;54.60;;;;;;5061341;28;20055;-68
2023/06/13 02:02:43;;;;;;;7.18;4.63;;;18.30;54.80;;;;;;5065811;28;20053;-68
2023/06/13 02:05:12;;;;;;;8.65;5.05;;;18.30;54.90;;;;;;5067212;28;20040;-68
2023/06/13 02:07:39;;;;;;;5.30;4.00;;;18.30;54.60;;;;;;5063540;28;20052;-68
2023/06/13 02:10:06;;;;;;;7.32;4.78;;;18.20;54.60;;;;;;5064325;28;20434;-68
2023/06/13 02:12:36;;;;;;;6.70;4.72;;;18.20;54.30;;;;;;5064097;28;20049;-72
2023/06/13 02:15:03;;;;;;;6.40;4.50;;;18.10;54.10;;;;;;5056612;28;20407;-72
2023/06/13 02:17:33;;;;;;;8.25;4.28;;;18.20;53.90;;;;;;5076413;28;20065;-71
2023/06/13 02:19:59;;;;;;;6.03;4.10;;;18.10;54.00;;;;;;5063678;28;20044;-72
2023/06/13 02:22:26;;;;;;;7.22;4.68;;;18.10;54.10;;;;;;5062742;28;20056;-68
2023/06/13 02:24:53;;;;;;;7.10;4.18;;;18.00;53.90;;;;;;5063233;28;20105;-68
2023/06/13 02:27:20;;;;;;;5.78;4.15;;;17.90;54.00;;;;;;5066068;28;20052;-69
2023/06/13 02:29:48;;;;;;;8.10;4.30;;;17.90;54.10;;;;;;5064396;28;20037;-71
2023/06/13 02:32:16;;;;;;;8.65;4.40;;;17.90;54.10;;;;;;5065769;28;20052;-72
2023/06/13 02:34:44;;;;;;;6.97;4.28;;;17.90;54.10;;;;;;5064998;28;20060;-71
2023/06/13 02:37:11;;;;;;;7.13;4.55;;;17.80;54.40;;;;;;5066479;28;20048;-69
2023/06/13 02:39:38;;;;;;;9.18;5.15;;;17.70;54.60;;;;;;5065448;28;20057;-69
2023/06/13 02:42:07;;;;;;;6.60;4.07;;;17.80;54.60;;;;;;5064811;28;20052;-64
2023/06/13 02:44:34;;;;;;;7.68;3.92;;;17.80;54.50;;;;;;5069226;28;20052;-64
2023/06/13 02:47:01;;;;;;;7.05;4.63;;;17.80;54.50;;;;;;5070478;28;20045;-77
2023/06/13 02:49:28;;;;;;;9.23;4.30;;;17.80;54.60;;;;;;5073060;28;20049;-75
2023/06/13 02:51:56;;;;;;;6.03;4.22;;;17.80;54.60;;;;;;5083767;28;20071;-65
2023/06/13 02:54:23;;;;;;;6.63;4.38;;;17.70;54.70;;;;;;5071612;28;20151;-64
2023/06/13 02:56:50;;;;;;;6.22;3.92;;;17.70;55.10;;;;;;5066653;28;20052;-63
2023/06/13 02:59:19;;;;;;;6.50;4.63;;;17.60;55.40;;;;;;5068250;28;20043;-63
2023/06/13 03:01:46;;;;;;;6.18;4.43;;;17.50;55.20;;;;;;5058729;28;20510;-77
2023/06/13 03:04:13;;;;;;;7.50;4.47;;;17.50;55.40;;;;;;5068792;28;20422;-77
2023/06/13 03:06:40;;;;;;;8.10;4.20;;;17.50;55.50;;;;;;5059038;28;20067;-72
2023/06/13 03:09:11;;;;;;;6.47;3.90;;;17.50;55.70;;;;;;5070429;28;20048;-72
2023/06/13 03:11:38;;;;;;;7.82;4.63;;;17.40;55.70;;;;;;5067732;28;20059;-71
2023/06/13 03:14:06;;;;;;;7.32;4.43;;;17.40;55.90;;;;;;5062457;28;20601;-70
2023/06/13 03:16:35;;;;;;;8.07;4.40;;;17.30;56.20;;;;;;5060438;28;20140;-78
2023/06/13 03:19:03;;;;;;;6.65;4.50;;;17.30;56.50;;;;;;5067476;28;20118;-78
2023/06/13 03:21:31;;;;;;;7.93;5.05;;;17.30;56.70;;;;;;5066182;28;20076;-72
2023/06/13 03:23:58;;;;;;;7.03;4.75;;;17.20;56.90;;;;;;5068050;28;20051;-72
2023/06/13 03:26:28;;;;;;;8.32;4.72;;;17.20;57.10;;;;;;5079581;28;20510;-69
2023/06/13 03:28:56;;;;;;;7.45;5.07;;;17.10;57.40;;;;;;5066936;28;20125;-71
2023/06/13 03:31:24;;;;;;;7.72;5.00;;;17.10;57.60;;;;;;5066035;28;20040;-63
2023/06/13 03:33:51;;;;;;;8.65;4.88;;;17.10;57.90;;;;;;5066493;28;20052;-63
2023/06/13 03:36:19;;;;;;;7.80;4.53;;;17.00;58.10;;;;;;5069097;28;20510;-63
2023/06/13 03:38:46;;;;;;;9.27;5.00;;;17.00;58.30;;;;;;5066225;28;20499;-64
2023/06/13 03:41:13;;;;;;;7.38;4.90;;;16.80;58.50;;;;;;5067285;28;20483;-73
2023/06/13 03:43:41;;;;;;;8.10;5.15;;;16.80;58.70;;;;;;5066698;28;20040;-72
2023/06/13 03:46:09;;;;;;;11.38;5.00;;;16.80;58.90;;;;;;5064983;28;20045;-68
2023/06/13 03:48:36;;;;;;;7.82;4.93;;;16.80;58.90;;;;;;5065508;28;20064;-68
2023/06/13 03:51:03;;;;;;;7.40;4.55;;;16.70;59.10;;;;;;5066089;28;20041;-71
2023/06/13 03:53:30;;;;;;;8.60;4.47;;;16.70;59.30;;;;;;5082290;28;20494;-71
2023/06/13 03:55:57;;;;;;;7.13;4.50;;;16.80;59.40;;;;;;5065600;28;20166;-72
2023/06/13 03:58:25;;;;;;;6.95;4.10;;;16.70;59.50;;;;;;5064816;28;20048;-72
2023/06/13 04:00:54;;;;;;;7.57;4.80;;;16.60;59.90;;;;;;5063900;28;20051;-69
2023/06/13 04:03:21;;;;;;;6.60;4.80;;;16.70;59.90;;;;;;5067634;28;20048;-69
2023/06/13 04:05:49;;;;;;;7.38;4.32;;;16.70;60.10;;;;;;5082976;28;20075;-70
2023/06/13 04:08:17;;;;;;;6.88;4.78;;;16.60;60.10;;;;;;5067308;28;20052;-69
2023/06/13 04:10:43;;;;;;;9.25;5.35;;;16.70;59.90;;;;;;5079273;28;20049;-70
2023/06/13 04:13:10;;;;;;;8.25;5.50;;;16.70;60.10;;;;;;5063047;28;20048;-69
2023/06/13 04:15:37;;;;;;;8.18;5.03;;;16.70;60.20;;;;;;5064450;28;20055;-78
2023/06/13 04:18:06;;;;;;;7.55;5.03;;;16.70;60.20;;;;;;5064141;28;20053;-77
2023/06/13 04:20:35;;;;;;;9.18;5.05;;;16.70;60.50;;;;;;5059826;28;20064;-78
2023/06/13 04:23:02;;;;;;;7.00;4.72;;;16.60;60.90;;;;;;5068556;28;20384;-77
2023/06/13 04:25:30;;;;;;;7.65;4.70;;;16.60;61.20;;;;;;5069169;28;20047;-71
2023/06/13 04:27:58;;;;;;;8.00;5.35;;;16.70;61.30;;;;;;5058332;28;20044;-71
2023/06/13 04:30:25;;;;;;;8.30;5.18;;;16.70;61.10;;;;;;5057178;28;20160;-68
2023/06/13 04:32:52;;;;;;;8.40;4.80;;;16.70;60.80;;;;;;5066819;28;20117;-69
2023/06/13 04:35:21;;;;;;;7.00;4.65;;;16.70;61.00;;;;;;5075106;28;20052;-68
2023/06/13 04:37:48;;;;;;;6.55;4.53;;;16.70;61.00;;;;;;5087993;28;20059;-69
2023/06/13 04:40:16;;;;;;;5.78;4.35;;;16.80;61.10;;;;;;5083447;28;20059;-68
2023/06/13 04:42:47;;;;;;;7.40;4.75;;;16.80;61.20;;;;;;5043845;28;20114;-67
2023/06/13 04:45:15;;;;;;;7.65;4.80;;;16.80;61.20;;;;;;5077026;28;20587;-69
2023/06/13 04:47:45;;;;;;;8.68;4.82;;;16.80;61.00;;;;;;5074723;28;20036;-69
2023/06/13 04:50:12;;;;;;;7.70;4.73;;;16.80;61.10;;;;;;5069989;28;20477;-69
2023/06/13 04:52:41;;;;;;;8.48;4.75;;;16.90;60.90;;;;;;5072907;28;20044;-63
2023/06/13 04:55:09;;;;;;;8.85;4.60;;;16.80;61.10;;;;;;5075870;28;20445;-62
2023/06/13 04:57:36;;;;;;;7.60;4.80;;;16.80;61.20;;;;;;5075295;28;20059;-72
2023/06/13 05:00:06;;;;;;;9.65;5.00;;;16.90;61.00;;;;;;5081603;28;20055;-72
2023/06/13 05:02:34;;;;;;;;;;;16.90;61.10;;;;;;5073629;28;20044;-68
2023/06/13 05:05:04;;;;;;;6.25;4.22;;;16.90;61.10;;;;;;5085477;28;19924;-69
2023/06/13 05:07:31;;;;;;;8.60;4.35;;;17.00;60.80;;;;;;5069036;28;20117;-79
2023/06/13 05:09:59;;;;;;;7.70;4.70;;;17.00;60.80;;;;;;5086293;28;20059;-78
2023/06/13 05:12:26;;;;;;;8.90;4.97;;;17.00;61.00;;;;;;5074834;28;20125;-71
2023/06/13 05:14:54;;;;;;;6.97;4.60;;;17.00;61.10;;;;;;5082831;28;20056;-71
2023/06/13 05:17:21;;;;;;;7.63;4.95;;;17.10;61.10;;;;;;5080315;28;20048;-61
2023/06/13 05:19:48;;;;;;;9.50;5.10;;;17.10;60.90;;;;;;5086170;28;20056;-61
2023/06/13 05:22:15;;;;;;;7.68;5.10;;;17.10;61.10;;;;;;5087106;28;20526;-75
2023/06/13 05:24:43;;;;;;;6.57;4.57;;;17.10;61.20;;;;;;5068552;28;20048;-73
2023/06/13 05:27:11;;;;;;;5.95;4.00;;;17.20;61.20;;;;;;5082180;28;20052;-70
2023/06/13 05:29:38;;;;;;;9.02;5.03;;;17.10;61.30;;;;;;5072892;28;20055;-69
2023/06/13 05:32:06;;;;;;;6.03;4.32;;;17.20;61.10;;;;;;5076309;28;20146;-79
2023/06/13 05:34:33;;;;;;;6.72;4.28;;;17.20;60.80;;;;;;5073370;28;20547;-78
2023/06/13 05:37:00;;;;;;;9.13;4.25;;;17.30;60.40;;;;;;5080208;28;20093;-79
2023/06/13 05:39:27;;;;;;;6.00;4.45;;;17.30;60.50;;;;;;5088875;28;20052;-79
2023/06/13 05:41:54;;;;;;;5.82;4.07;;;17.30;60.40;;;;;;5071553;28;20070;-79
2023/06/13 05:44:22;;;;;;;6.63;4.15;;;17.40;60.60;;;;;;5078040;28;20131;-79
2023/06/13 05:46:49;;;;;;;7.45;4.07;;;17.40;60.50;;;;;;5072772;28;22317;-64
2023/06/13 05:49:16;;;;;;;7.70;4.50;;;17.50;60.50;;;;;;5083108;28;20479;-64
2023/06/13 05:51:43;;;;;;;7.30;4.10;;;17.50;60.50;;;;;;5085382;28;20044;-79
2023/06/13 05:54:10;;;;;;;7.07;4.40;;;17.60;60.50;;;;;;5071055;28;20134;-78
2023/06/13 05:56:37;;;;;;;5.35;3.63;;;17.60;60.50;;;;;;5086047;28;20105;-71
2023/06/13 05:59:04;;;;;;;8.35;4.35;;;17.60;60.30;;;;;;5074329;28;20504;-72
2023/06/13 06:01:35;;;;;;;6.85;4.28;;;17.60;60.60;;;;;;5074577;28;21115;-71
2023/06/13 06:04:02;;;;;;;6.88;4.32;;;17.70;60.00;;;;;;5073755;28;20036;-71
2023/06/13 06:06:29;;;;;;;6.70;4.32;;;17.70;59.70;;;;;;5072844;28;20084;-71
2023/06/13 06:08:55;;;;;;;8.18;4.65;;;17.70;59.70;;;;;;5065928;28;20051;-71
2023/06/13 06:11:23;;;;;;;7.15;4.22;;;17.80;59.40;;;;;;5061404;28;20045;-64
2023/06/13 06:13:49;;;;;;;6.80;4.13;;;17.80;59.60;;;;;;5065381;28;20067;-65
2023/06/13 06:16:16;;;;;;;7.80;4.00;;;17.90;59.40;;;;;;5067421;28;20052;-63
2023/06/13 06:18:45;;;;;;;6.35;4.00;;;18.00;59.20;;;;;;5066983;28;20059;-61
2023/06/13 06:21:11;;;;;;;7.32;3.53;;;18.10;59.00;;;;;;5064755;28;20052;-73
2023/06/13 06:23:42;;;;;;;6.93;3.45;;;18.20;58.70;;;;;;5067546;28;20507;-72
2023/06/13 06:26:09;;;;;;;6.35;3.70;;;18.20;58.40;;;;;;5066368;28;20055;-65
2023/06/13 06:28:36;;;;;;;6.20;3.78;;;18.40;58.40;;;;;;5066127;28;20119;-64
2023/06/13 06:31:05;;;;;;;9.15;4.25;;;18.50;58.20;;;;;;5064641;28;21841;-69
2023/06/13 06:33:32;;;;;;;6.90;4.05;;;18.60;57.90;;;;;;5066676;28;20560;-69
2023/06/13 06:36:00;;;;;;;7.53;3.97;;;18.70;57.60;;;;;;5065569;28;20054;-70
2023/06/13 06:38:27;;;;;;;6.78;3.80;;;19.00;57.10;;;;;;5066321;28;20051;-70
2023/06/13 06:40:54;;;;;;;7.78;3.70;;;19.10;56.80;;;;;;5067576;28;20068;-68
2023/06/13 06:43:21;;;;;;;7.93;4.03;;;19.20;56.10;;;;;;5065519;28;20048;-67
2023/06/13 06:45:50;;;;;;;7.63;3.90;;;19.40;55.20;;;;;;5064199;28;20491;-73
2023/06/13 06:48:17;;;;;;;7.88;3.97;;;19.50;54.80;;;;;;5066206;28;20496;-72
2023/06/13 06:50:44;;;;;;;7.35;3.80;;;19.70;54.10;;;;;;5063081;28;20047;-68
2023/06/13 06:53:12;;;;;;;7.25;3.90;;;19.90;53.60;;;;;;5066747;28;20064;-67
2023/06/13 06:55:39;;;;;;;6.30;3.92;;;20.00;52.90;;;;;;5064699;28;20071;-70
2023/06/13 06:58:06;;;;;;;7.13;3.47;;;20.20;52.30;;;;;;5066501;28;21297;-70
2023/06/13 07:00:33;;;;;;;7.55;4.00;;;20.30;52.10;;;;;;5064217;28;20067;-71
2023/06/13 07:03:00;;;;;;;6.72;3.88;;;20.50;51.40;;;;;;5063138;28;20044;-71
2023/06/13 07:05:27;;;;;;;8.05;3.70;;;20.70;51.30;;;;;;5065211;28;20044;-68
2023/06/13 07:07:54;;;;;;;7.10;3.88;;;20.80;50.70;;;;;;5065670;28;20040;-68
2023/06/13 07:10:26;;;;;;;6.65;3.75;;;21.00;50.60;;;;;;5064242;28;20144;-68
2023/06/13 07:12:53;;;;;;;6.72;3.45;;;21.20;50.60;;;;;;5061781;28;20068;-70
2023/06/13 07:15:20;;;;;;;4.95;3.40;;;21.50;49.90;;;;;;5066663;28;20411;-70
2023/06/13 07:17:50;;;;;;;6.85;3.92;;;21.60;49.30;;;;;;5063278;28;20048;-71
2023/06/13 07:20:17;;;;;;;6.85;3.90;;;21.80;48.70;;;;;;5063343;28;20056;-70
2023/06/13 07:22:44;;;;;;;6.93;3.83;;;22.00;47.80;;;;;;5066105;28;20175;-70
2023/06/13 07:25:11;;;;;;;6.60;3.67;;;22.10;47.60;;;;;;5067243;28;20072;-70
2023/06/13 07:27:39;;;;;;;5.80;3.83;;;22.30;47.20;;;;;;5070994;28;20056;-79
2023/06/13 07:30:08;;;;;;;5.53;3.38;;;22.50;47.10;;;;;;5067960;28;20483;-79
2023/06/13 07:32:35;;;;;;;4.88;3.20;;;22.60;46.70;;;;;;5069804;28;20041;-66
2023/06/13 07:35:02;;;;;;;5.07;3.45;;;22.90;46.20;;;;;;5069130;28;20056;-66
2023/06/13 07:37:29;;;;;;;6.85;3.83;;;23.00;44.60;;;;;;5067460;28;20056;-67
2023/06/13 07:39:56;;;;;;;6.05;3.55;;;23.20;44.20;;;;;;5070182;28;20070;-66
2023/06/13 07:42:23;;;;;;;5.40;3.53;;;23.30;43.10;;;;;;5068922;28;20928;-68
2023/06/13 07:44:51;;;;;;;5.70;3.35;;;23.40;43.10;;;;;;5067799;28;20487;-67
2023/06/13 07:47:18;;;;;;;6.78;3.40;;;23.50;43.30;;;;;;5068893;28;20044;-68
2023/06/13 07:49:45;;;;;;;5.30;3.60;;;23.60;43.10;;;;;;5068407;28;20118;-71
2023/06/13 07:52:12;;;;;;;4.95;3.80;;;23.80;43.10;;;;;;5068586;28;20137;-73
2023/06/13 07:54:39;;;;;;;6.07;3.03;;;24.00;42.90;;;;;;5069345;28;20053;-73
2023/06/13 07:57:09;;;;;;;5.18;3.63;;;24.20;41.90;;;;;;5070743;28;20408;-67
2023/06/13 07:59:35;;;;;;;6.38;3.50;;;24.20;40.80;;;;;;5071512;28;20054;-69
2023/06/13 08:02:05;;;;;;;4.75;3.15;;;24.30;41.80;;;;;;5083100;28;20040;-69
2023/06/13 08:04:32;;;;;;;5.47;3.15;;;24.40;41.10;;;;;;5101850;28;20112;-67
2023/06/13 08:06:59;;;;;;;5.70;3.72;;;24.60;41.90;;;;;;5085184;28;20523;-69
2023/06/13 08:09:26;;;;;;;6.25;3.85;;;24.70;41.80;;;;;;5068527;28;20049;-72
2023/06/13 08:11:53;;;;;;;6.03;3.25;;;24.80;41.20;;;;;;5066477;28;20063;-71
2023/06/13 08:14:20;;;;;;;6.07;4.10;;;24.90;40.90;;;;;;5063190;28;20048;-72
2023/06/13 08:16:48;;;;;;;7.35;3.42;;;25.00;41.40;;;;;;5057958;28;20068;-71
2023/06/13 08:19:18;;;;;;;6.30;3.50;;;25.10;40.90;;;;;;5067722;28;20049;-74
2023/06/13 08:21:47;;;;;;;6.95;3.70;;;25.10;39.30;;;;;;5066058;28;20048;-64
2023/06/13 08:24:14;;;;;;;6.78;3.42;;;25.20;38.80;;;;;;5067690;28;20124;-66
2023/06/13 08:26:41;;;;;;;5.22;3.38;;;25.30;38.60;;;;;;5067485;28;20052;-68
2023/06/13 08:29:08;;;;;;;5.10;3.33;;;25.30;38.90;;;;;;5067230;28;20407;-67
2023/06/13 08:31:36;;;;;;;5.35;3.78;;;25.50;38.20;;;;;;5062975;28;20041;-65
2023/06/13 08:34:05;;;;;;;5.75;3.70;;;25.60;37.60;;;;;;5065592;28;20052;-64
2023/06/13 08:36:35;;;;;;;5.05;3.40;;;25.60;37.60;;;;;;5065242;28;20131;-61
2023/06/13 08:39:03;;;;;;;3.97;3.20;;;25.70;36.80;;;;;;5063523;28;20062;-62
2023/06/13 08:41:31;;;;;;;4.65;2.90;;;25.80;36.60;;;;;;5067974;28;20044;-71
2023/06/13 08:43:59;;;;;;;5.00;3.30;;;25.90;36.00;;;;;;5065222;28;20090;-71
2023/06/13 08:46:26;;;;;;;6.10;3.50;;;26.00;34.60;;;;;;5067844;28;20048;-61
2023/06/13 08:48:52;;;;;;;5.65;3.55;;;26.00;35.00;;;;;;5065672;28;20049;-61
2023/06/13 08:51:22;;;;;;;4.55;3.20;;;26.10;35.00;;;;;;5064079;28;20044;-61
2023/06/13 08:53:53;;;;;;;6.03;3.35;;;26.20;35.60;;;;;;5066415;28;23635;-62
2023/06/13 08:56:25;;;;;;;6.55;3.45;;;26.30;35.80;;;;;;5065105;28;20036;-65
2023/06/13 08:58:58;;;;;;;6.10;3.55;;;26.40;35.40;;;;;;5067159;28;20041;-65
2023/06/13 09:01:27;;;;;;;6.65;4.00;;;26.50;35.20;;;;;;5061779;28;20083;-67
2023/06/13 09:03:57;;;;;;;6.43;3.55;;;26.60;35.40;;;;;;5064319;28;20055;-65
2023/06/13 09:06:25;;;;;;;4.75;3.30;;;26.70;35.60;;;;;;5065816;28;20052;-65
2023/06/13 09:08:54;;;;;;;5.65;3.55;;;26.80;35.50;;;;;;5060875;28;20067;-66
2023/06/13 09:11:21;;;;;;;6.72;3.55;;;26.80;35.00;;;;;;5064675;28;20056;-62
2023/06/13 09:13:51;;;;;;;5.43;3.20;;;26.90;34.30;;;;;;5056995;28;20055;-61
2023/06/13 09:16:19;;;;;;;4.43;3.00;;;27.00;34.40;;;;;;5064177;28;20568;-70
2023/06/13 09:18:46;;;;;;;4.35;3.25;;;27.00;34.70;;;;;;5065357;28;20048;-70
2023/06/13 09:21:13;;;;;;;5.38;3.47;;;27.10;34.30;;;;;;5060504;28;20048;-67
2023/06/13 09:23:41;;;;;;;4.82;3.35;;;27.20;33.30;;;;;;5073529;28;20495;-67
2023/06/13 09:26:10;;;;;;;6.38;3.85;;;27.20;33.80;;;;;;5064865;28;20059;-67
2023/06/13 09:28:40;;;;;;;6.05;3.30;;;27.30;33.20;;;;;;5066819;28;20052;-67
2023/06/13 09:31:07;;;;;;;4.80;3.28;;;27.30;32.60;;;;;;5061632;28;20106;-75
2023/06/13 09:33:34;;;;;;;5.07;3.20;;;27.40;32.50;;;;;;5065661;28;20048;-78
2023/06/13 09:36:02;;;;;;;8.30;3.75;;;27.40;32.40;;;;;;5067172;28;20044;-70
2023/06/13 09:38:29;;;;;;;5.25;3.03;;;27.50;32.30;;;;;;5068177;28;20133;-69
2023/06/13 09:40:57;;;;;;;4.90;3.20;;;27.60;32.50;;;;;;5066252;28;20036;-76
2023/06/13 09:43:27;;;;;;;5.95;3.33;;;27.70;32.70;;;;;;5064158;28;20412;-75
2023/06/13 09:45:54;;;;;;;6.30;3.60;;;27.80;32.70;;;;;;5063961;28;20049;-65
2023/06/13 09:48:21;;;;;;;5.55;3.30;;;27.90;32.20;;;;;;5064078;28;20048;-65
2023/06/13 09:50:49;;;;;;;4.20;2.90;;;28.00;31.90;;;;;;5067479;28;20055;-68
2023/06/13 09:53:16;;;;;;;7.60;3.50;;;28.00;32.50;;;;;;5066179;28;20136;-69
2023/06/13 09:55:44;;;;;;;5.82;3.60;;;28.10;32.30;;;;;;5066863;28;20056;-69
2023/06/13 09:58:11;;;;;;;5.00;3.47;;;28.20;32.60;;;;;;5065898;28;20040;-69
2023/06/13 10:00:39;;;;;;;4.18;3.13;;;28.20;32.00;;;;;;5066803;28;20052;-72
2023/06/13 10:03:06;;;;;;;4.85;3.00;;;28.20;31.70;;;;;;5060987;28;20044;-72
2023/06/13 10:05:33;;;;;;;4.80;3.28;;;28.20;31.90;;;;;;5062428;28;20067;-69
2023/06/13 10:08:00;;;;;;;4.85;3.10;;;28.30;31.50;;;;;;5065826;28;20037;-69
2023/06/13 10:10:27;;;;;;;6.25;3.30;;;28.40;31.50;;;;;;5066795;28;20058;-70
2023/06/13 10:12:58;;;;;;;4.88;3.38;;;28.40;31.10;;;;;;5066219;28;20044;-72
2023/06/13 10:15:30;;;;;;;5.38;3.83;;;28.50;31.30;;;;;;5068063;28;20052;-67
2023/06/13 10:18:06;;;;;;;4.13;3.05;;;28.50;31.30;;;;;;5066140;28;20864;-66
2023/06/13 10:20:35;;;;;;;5.97;3.70;;;28.50;30.80;;;;;;5064442;28;20045;-70
2023/06/13 10:23:06;;;;;;;5.93;3.30;;;28.60;31.40;;;;;;5062826;28;20053;-69
2023/06/13 10:25:34;;;;;;;5.03;3.33;;;28.60;31.50;;;;;;5066015;28;20052;-66
2023/06/13 10:28:16;;;;;;;5.07;3.30;;;28.70;31.80;;;;;;5062223;28;20044;-65
2023/06/13 10:30:53;;;;;;;5.50;3.63;;;28.80;32.00;;;;;;5066258;28;20402;-68
2023/06/13 10:33:46;;;;;;;4.38;3.30;;;28.80;31.40;;;;;;5069198;28;20055;-70
2023/06/13 10:36:18;;;;;;;6.18;3.53;;;29.00;31.40;;;;;;5065325;28;20506;-77
2023/06/13 10:39:14;;;;;;;6.53;3.28;;;29.00;31.30;;;;;;5079913;28;20072;-77
2023/06/13 10:42:02;;;;;;;6.82;3.92;;;29.00;31.70;;;;;;5073331;28;20052;-69
2023/06/13 10:44:37;;;;;;;8.07;4.05;;;29.10;31.90;;;;;;5075357;28;20429;-69
2023/06/13 10:47:06;;;;;;;7.63;5.28;;;29.20;31.80;;;;;;5087945;28;20537;-68
2023/06/13 10:49:42;;;;;;;9.30;7.45;;;29.30;31.40;;;;;;5072952;28;20044;-68
2023/06/13 10:52:13;;;;;;;10.32;7.55;;;29.20;30.60;;;;;;5070606;28;20152;-69
2023/06/13 10:54:41;;;;;;;10.98;8.65;;;29.30;30.70;;;;;;5061386;28;20521;-70
2023/06/13 10:57:09;;;;;;;8.02;6.13;;;29.30;31.00;;;;;;5040174;28;20563;-61
2023/06/13 10:59:37;;;;;;;7.55;5.32;;;29.40;31.10;;;;;;5082399;28;20044;-63
2023/06/13 11:02:04;;;;;;;6.90;4.90;;;29.40;30.00;;;;;;5081362;28;20118;-68
2023/06/13 11:04:32;;;;;;;5.47;4.30;;;29.40;29.90;;;;;;5066601;28;20119;-69
2023/06/13 11:07:26;;;;;;;8.27;4.50;;;29.40;30.30;;;;;;5079972;28;20044;-72
2023/06/13 11:10:03;;;;;;;10.90;7.20;;;29.50;30.50;;;;;;5067877;28;20573;-72
2023/06/13 11:12:30;;;;;;;11.32;8.88;;;29.60;30.90;;;;;;5084481;28;20047;-69
2023/06/13 11:14:59;;;;;;;9.38;7.22;;;29.50;30.30;;;;;;5088471;28;20051;-72
2023/06/13 11:17:27;;;;;;;6.75;5.85;;;29.50;30.00;;;;;;5076400;28;20056;-71
2023/06/13 11:19:55;;;;;;;10.45;8.80;;;29.60;29.90;;;;;;5070534;28;20047;-72
2023/06/13 11:22:23;;;;;;;7.18;5.80;;;29.60;30.10;;;;;;5070090;28;20070;-72
2023/06/13 11:24:56;;;;;;;9.45;6.18;;;29.60;29.30;;;;;;5076004;28;20052;-71
2023/06/13 11:27:25;;;;;;;8.63;6.75;;;29.60;29.50;;;;;;5070867;28;20139;-72
2023/06/13 11:29:52;;;;;;;;;;;29.70;29.30;;;;;;5089003;28;20048;-72
2023/06/13 11:32:19;;;;;;;10.00;6.65;;;29.70;29.30;;;;;;5079732;28;19940;-72
2023/06/13 11:34:50;;;;;;;6.22;4.93;;;29.70;29.60;;;;;;5074277;28;20139;-73
2023/06/13 11:37:25;;;;;;;6.82;4.88;;;29.60;29.20;;;;;;5064005;28;20052;-72
2023/06/13 11:39:59;;;;;;;7.15;5.22;;;29.70;29.00;;;;;;5068280;28;20075;-70
2023/06/13 11:42:26;;;;;;;6.30;5.38;;;29.70;28.70;;;;;;5067549;28;20053;-72
2023/06/13 11:44:56;;;;;;;6.55;4.63;;;29.70;29.20;;;;;;5068685;28;20041;-74
2023/06/13 11:47:23;;;;;;;6.18;4.63;;;29.70;29.20;;;;;;5070329;28;20053;-72
2023/06/13 11:50:05;;;;;;;7.70;5.03;;;29.70;29.00;;;;;;5067861;28;20484;-71
2023/06/13 11:52:32;;;;;;;7.50;5.10;;;29.80;29.60;;;;;;5066613;28;20609;-71
2023/06/13 11:55:01;;;;;;;9.32;7.75;;;29.70;28.90;;;;;;5066552;28;20141;-72
2023/06/13 11:57:46;;;;;;;12.52;11.23;;;29.90;29.60;;;;;;5069692;28;20060;-66
2023/06/13 12:00:15;;;;;;;13.23;11.25;;;29.90;28.70;;;;;;5067246;28;20059;-67
2023/06/13 12:02:43;;;;;;;9.02;7.88;;;29.90;29.50;;;;;;5068007;28;20048;-68
2023/06/13 12:05:10;;;;;;;9.37;6.77;;;29.90;28.80;;;;;;5068182;28;20127;-68
2023/06/13 12:07:39;;;;;;;8.27;6.07;;;29.90;29.30;;;;;;5067628;28;20278;-62
2023/06/13 12:10:08;;;;;;;7.63;5.30;;;29.90;29.10;;;;;;5068235;28;20071;-62
2023/06/13 12:12:35;;;;;;;8.23;4.90;;;29.90;28.80;;;;;;5064679;28;20048;-62
2023/06/13 12:15:04;;;;;;;6.40;5.63;;;30.00;28.50;;;;;;5068671;28;20102;-62
2023/06/13 12:17:30;;;;;;;7.05;4.50;;;29.90;28.50;;;;;;5065489;28;20060;-62
2023/06/13 12:20:08;;;;;;;7.72;4.50;;;29.80;28.30;;;;;;5067247;28;20080;-64
2023/06/13 12:22:35;;;;;;;4.95;3.60;;;29.80;28.10;;;;;;5067553;28;20094;-69
2023/06/13 12:25:02;;;;;;;5.70;3.97;;;29.80;28.10;;;;;;5054579;28;20394;-69
2023/06/13 12:27:31;;;;;;;5.38;4.10;;;29.80;28.70;;;;;;5068633;28;20045;-67
2023/06/13 12:30:17;;;;;;;7.25;4.18;;;29.80;29.30;;;;;;5068506;28;20045;-68
2023/06/13 12:32:45;;;;;;;5.78;3.83;;;29.70;29.00;;;;;;5059176;28;20045;-67
2023/06/13 12:35:12;;;;;;;5.83;4.73;;;29.70;29.20;;;;;;5067855;28;20407;-67
2023/06/13 12:37:39;;;;;;;5.65;3.83;;;29.70;29.30;;;;;;5068356;28;20052;-61
2023/06/13 12:40:10;;;;;;;4.28;3.35;;;29.60;28.80;;;;;;5065111;28;20044;-61
2023/06/13 12:42:42;;;;;;;5.78;3.90;;;29.60;28.80;;;;;;5060724;28;20044;-74
2023/06/13 12:45:10;;;;;;;5.78;4.20;;;29.60;28.90;;;;;;5065749;28;20051;-75
2023/06/13 12:47:37;;;;;;;7.43;4.10;;;29.70;29.70;;;;;;5065014;28;20056;-75
2023/06/13 12:50:22;;;;;;;6.45;3.95;;;29.60;29.00;;;;;;5068420;28;20094;-74
2023/06/13 12:52:49;;;;;;;6.60;4.00;;;29.60;29.40;;;;;;5066496;28;20060;-76
2023/06/13 12:55:19;;;;;;;5.38;3.83;;;29.60;29.60;;;;;;5063980;28;20056;-73